createdAt,value
2022-08-11T00:01:27.248Z,98183.48
2022-08-11T00:04:03.620Z,98181.04
2022-08-11T00:06:35.476Z,98179.84
2022-08-11T00:09:15.565Z,98180.70
2022-08-11T00:11:52.016Z,98177.20
2022-08-11T00:14:37.456Z,98179.70
2022-08-11T00:17:09.677Z,98180.03
2022-08-11T00:20:12.972Z,98184.38
2022-08-11T00:22:31.371Z,98187.64
2022-08-11T00:25:10.115Z,98189.07
2022-08-11T00:27:41.354Z,98193.23
2022-08-11T00:30:11.726Z,98194.19
2022-08-11T00:32:42.983Z,98192.67
2022-08-11T00:35:54.864Z,98188.67
2022-08-11T00:38:04.953Z,98189.39
2022-08-11T00:40:42.925Z,98186.55
2022-08-11T00:43:40.319Z,98188.27
2022-08-11T00:46:16.505Z,98189.91
2022-08-11T00:49:19.587Z,98190.68
2022-08-11T00:52:15.255Z,98197.80
2022-08-11T00:55:08.095Z,98195.28
2022-08-11T00:58:12.831Z,98195.30
2022-08-11T01:01:22.817Z,98197.71
2022-08-11T01:04:12.158Z,98197.12
2022-08-11T01:07:08.839Z,98195.05
2022-08-11T01:10:20.485Z,98192.75
2022-08-11T01:13:10.122Z,98191.68
2022-08-11T01:16:15.617Z,98187.22
2022-08-11T01:19:16.174Z,98187.39
2022-08-11T01:22:02.981Z,98183.33
2022-08-11T01:25:23.188Z,98185.58
2022-08-11T01:28:35.474Z,98184.51
2022-08-11T01:31:23.767Z,98181.96
2022-08-11T01:34:07.106Z,98179.29
2022-08-11T01:37:16.371Z,98177.98
2022-08-11T01:39:56.694Z,98176.62
2022-08-11T01:43:29.247Z,98174.84
2022-08-11T01:46:26.607Z,98173.05
2022-08-11T01:50:08.446Z,98169.90
2022-08-11T01:52:33.622Z,98171.05
2022-08-11T01:55:24.192Z,98167.05
2022-08-11T01:58:17.252Z,98167.83
2022-08-11T02:00:52.816Z,98169.05
2022-08-11T02:03:26.643Z,98171.59
2022-08-11T02:06:33.268Z,98174.52
2022-08-11T02:09:10.491Z,98175.13
2022-08-11T02:11:39.234Z,98173.05
2022-08-11T02:14:36.905Z,98174.52
2022-08-11T02:17:23.280Z,98169.13
2022-08-11T02:20:31.903Z,98166.91
2022-08-11T02:24:05.084Z,98169.30
2022-08-11T02:26:46.941Z,98168.09
2022-08-11T02:29:46.166Z,98163.23
2022-08-11T02:32:44.575Z,98159.55
2022-08-11T02:35:19.245Z,98155.72
2022-08-11T02:37:47.127Z,98158.04
2022-08-11T02:40:53.409Z,98164.50
2022-08-11T02:43:34.759Z,98168.06
2022-08-11T02:46:18.073Z,98166.23
2022-08-11T02:49:17.033Z,98167.94
2022-08-11T02:52:04.973Z,98165.32
2022-08-11T02:55:01.781Z,98162.80
2022-08-11T02:57:38.159Z,98162.56
2022-08-11T03:00:13.005Z,98166.64
2022-08-11T03:03:18.823Z,98170.19
2022-08-11T03:06:20.103Z,98169.88
2022-08-11T03:09:04.684Z,98169.80
2022-08-11T03:12:19.621Z,98166.75
2022-08-11T03:15:22.099Z,98173.13
2022-08-11T03:18:29.752Z,98173.44
2022-08-11T03:21:09.525Z,98174.98
2022-08-11T03:24:04.217Z,98177.83
2022-08-11T03:26:54.042Z,98177.30
2022-08-11T03:29:46.553Z,98180.30
2022-08-11T03:32:39.219Z,98177.54
2022-08-11T03:35:09.796Z,98171.70
2022-08-11T03:38:03.289Z,98168.63
2022-08-11T03:42:01.172Z,98166.10
2022-08-11T03:44:43.427Z,98161.78
2022-08-11T03:47:20.707Z,98162.16
2022-08-11T03:50:00.596Z,98158.48
2022-08-11T03:53:10.435Z,98159.39
2022-08-11T03:56:12.264Z,98162.23
2022-08-11T03:59:07.097Z,98162.70
2022-08-11T04:02:12.524Z,98164.45
2022-08-11T04:05:13.795Z,98167.77
2022-08-11T04:07:59.970Z,98163.22
2022-08-11T04:11:08.668Z,98162.00
2022-08-11T04:14:24.485Z,98161.69
2022-08-11T04:17:01.832Z,98166.30
2022-08-11T04:19:57.845Z,98165.61
2022-08-11T04:22:38.249Z,98161.60
2022-08-11T04:25:12.367Z,98160.67
2022-08-11T04:28:04.911Z,98161.14
2022-08-11T04:30:51.885Z,98162.59
2022-08-11T04:33:55.382Z,98164.27
2022-08-11T04:37:05.599Z,98165.70
2022-08-11T04:40:21.598Z,98164.42
2022-08-11T04:43:07.962Z,98164.36
2022-08-11T04:45:51.998Z,98164.65
2022-08-11T04:49:09.233Z,98167.77
2022-08-11T04:52:02.025Z,98167.95
2022-08-11T04:54:54.479Z,98166.79
2022-08-11T04:58:00.265Z,98167.94
2022-08-11T05:00:57.425Z,98172.25
2022-08-11T05:04:28.171Z,98172.45
2022-08-11T05:07:34.522Z,98174.35
2022-08-11T05:10:43.166Z,98174.17
2022-08-11T05:13:41.061Z,98175.65
2022-08-11T05:16:36.282Z,98176.66
2022-08-11T05:19:23.809Z,98172.31
2022-08-11T05:22:16.358Z,98173.80
2022-08-11T05:25:15.241Z,98173.17
2022-08-11T05:28:33.887Z,98174.13
2022-08-11T05:31:30.622Z,98175.99
2022-08-11T05:34:38.883Z,98171.93
2022-08-11T05:37:26.130Z,98172.44
2022-08-11T05:40:30.603Z,98174.61
2022-08-11T05:43:22.213Z,98173.46
2022-08-11T05:46:20.316Z,98168.48
2022-08-11T05:49:08.781Z,98169.54
2022-08-11T05:52:05.630Z,98168.70
2022-08-11T05:55:06.353Z,98168.20
2022-08-11T05:57:49.731Z,98165.21
2022-08-11T06:00:20.910Z,98163.86
2022-08-11T06:02:54.334Z,98164.52
2022-08-11T06:05:44.483Z,98163.58
2022-08-11T06:08:14.851Z,98160.85
2022-08-11T06:10:45.689Z,98161.64
2022-08-11T06:13:18.289Z,98157.63
2022-08-11T06:15:53.184Z,98155.33
2022-08-11T06:18:22.099Z,98157.17
2022-08-11T06:20:56.512Z,98157.44
2022-08-11T06:23:32.089Z,98157.90
2022-08-11T06:26:01.504Z,98162.83
2022-08-11T06:28:36.092Z,98158.61
2022-08-11T06:31:14.311Z,98161.27
2022-08-11T06:33:53.913Z,98162.93
2022-08-11T06:36:28.310Z,98161.94
2022-08-11T06:39:24.005Z,98157.76
2022-08-11T06:42:07.167Z,98158.45
2022-08-11T06:45:01.962Z,98157.14
2022-08-11T06:47:30.196Z,98161.64
2022-08-11T06:50:18.344Z,98163.69
2022-08-11T06:52:48.245Z,98161.61
2022-08-11T06:55:56.619Z,98163.08
2022-08-11T06:58:49.478Z,98167.14
2022-08-11T07:01:37.198Z,98163.66
2022-08-11T07:04:09.266Z,98161.48
2022-08-11T07:06:51.143Z,98161.29
2022-08-11T07:10:13.388Z,98160.55
2022-08-11T07:13:04.454Z,98157.48
2022-08-11T07:16:11.010Z,98160.13
2022-08-11T07:19:02.045Z,98158.62
2022-08-11T07:22:00.745Z,98151.06
2022-08-11T07:25:13.362Z,98149.58
2022-08-11T07:28:03.485Z,98146.40
2022-08-11T07:30:33.363Z,98141.27
2022-08-11T07:33:03.294Z,98137.17
2022-08-11T07:35:43.983Z,98133.98
2022-08-11T07:38:22.875Z,98132.27
2022-08-11T07:40:53.564Z,98128.70
2022-08-11T07:43:25.082Z,98129.20
2022-08-11T07:46:11.659Z,98127.51
2022-08-11T07:49:00.911Z,98126.77
2022-08-11T07:51:47.633Z,98120.42
2022-08-11T07:54:17.172Z,98117.21
2022-08-11T07:56:55.077Z,98119.52
2022-08-11T08:00:04.003Z,98112.52
2022-08-11T08:03:03.671Z,98116.06
2022-08-11T08:05:50.406Z,98113.48
2022-08-11T08:08:37.012Z,98110.55
2022-08-11T08:11:27.527Z,98110.95
2022-08-11T08:14:15.167Z,98105.89
2022-08-11T08:17:02.352Z,98101.15
2022-08-11T08:19:31.947Z,98096.58
2022-08-11T08:22:10.951Z,98096.73
2022-08-11T08:24:49.999Z,98092.36
2022-08-11T08:27:20.508Z,98081.61
2022-08-11T08:30:08.671Z,98080.11
2022-08-11T08:32:40.849Z,98081.13
2022-08-11T08:35:11.526Z,98075.16
2022-08-11T08:37:46.221Z,98075.77
2022-08-11T08:40:15.805Z,98067.51
2022-08-11T08:42:53.775Z,98072.63
2022-08-11T08:45:23.598Z,98072.48
2022-08-11T08:47:53.346Z,98070.66
2022-08-11T08:50:46.903Z,98070.48
2022-08-11T08:53:19.049Z,98070.18
2022-08-11T08:55:47.484Z,98065.52
2022-08-11T08:58:16.619Z,98067.17
2022-08-11T09:00:46.690Z,98064.05
2022-08-11T09:03:39.887Z,98063.31
2022-08-11T09:06:02.894Z,98060.38
2022-08-11T09:08:32.976Z,98056.01
2022-08-11T09:11:22.623Z,98055.25
2022-08-11T09:14:04.807Z,98057.15
2022-08-11T09:16:39.068Z,98057.11
2022-08-11T09:19:09.128Z,98050.63
2022-08-11T09:21:48.876Z,98051.33
2022-08-11T09:24:38.022Z,98049.11
2022-08-11T09:27:11.019Z,98048.75
2022-08-11T09:29:39.229Z,98047.36
2022-08-11T09:32:08.574Z,98043.55
2022-08-11T09:34:39.258Z,98043.56
2022-08-11T09:37:54.945Z,98045.69
2022-08-11T09:40:33.741Z,98040.61
2022-08-11T09:43:24.703Z,98043.85
2022-08-11T09:45:54.773Z,98039.23
2022-08-11T09:48:26.805Z,98038.67
2022-08-11T09:51:01.556Z,98036.34
2022-08-11T09:53:41.283Z,98036.65
2022-08-11T09:56:35.123Z,98032.86
2022-08-11T09:59:04.919Z,98031.73
2022-08-11T10:01:42.410Z,98028.48
2022-08-11T10:04:35.047Z,98027.45
2022-08-11T10:07:10.503Z,98021.55
2022-08-11T10:09:50.903Z,98017.11
2022-08-11T10:12:28.060Z,98019.80
2022-08-11T10:15:23.610Z,98017.00
2022-08-11T10:18:21.140Z,98020.58
2022-08-11T10:20:51.598Z,98022.55
2022-08-11T10:24:00.827Z,98018.31
2022-08-11T10:26:48.330Z,98015.23
2022-08-11T10:29:37.477Z,98018.05
2022-08-11T10:32:29.516Z,98015.34
2022-08-11T10:35:02.246Z,98010.23
2022-08-11T10:38:07.544Z,98011.23
2022-08-11T10:40:25.565Z,98006.16
2022-08-11T10:43:13.977Z,98004.71
2022-08-11T10:46:05.103Z,98003.45
2022-08-11T10:48:38.106Z,98002.77
2022-08-11T10:51:14.112Z,97992.98
2022-08-11T10:54:02.392Z,97989.96
2022-08-11T10:56:53.684Z,97986.59
2022-08-11T10:59:24.677Z,97981.02
2022-08-11T11:01:54.706Z,97982.61
2022-08-11T11:04:38.492Z,97983.55
2022-08-11T11:07:16.262Z,97983.32
2022-08-11T11:09:51.169Z,97985.19
2022-08-11T11:13:02.952Z,97980.36
2022-08-11T11:15:53.553Z,97975.67
2022-08-11T11:18:25.828Z,97974.45
2022-08-11T11:20:57.545Z,97971.76
2022-08-11T11:23:34.060Z,97969.86
2022-08-11T11:26:10.443Z,97965.52
2022-08-11T11:29:03.143Z,97961.10
2022-08-11T11:32:11.154Z,97958.23
2022-08-11T11:35:10.335Z,97959.59
2022-08-11T11:37:40.885Z,97955.83
2022-08-11T11:40:31.660Z,97949.81
2022-08-11T11:43:01.221Z,97949.40
2022-08-11T11:45:30.482Z,97950.83
2022-08-11T11:48:01.348Z,97954.38
2022-08-11T11:50:34.633Z,97949.23
2022-08-11T11:53:07.056Z,97943.84
2022-08-11T11:55:36.442Z,97946.52
2022-08-11T11:58:24.629Z,97924.20
2022-08-11T12:01:12.900Z,97932.91
2022-08-11T12:03:41.277Z,97934.77
2022-08-11T12:06:14.272Z,97932.63
2022-08-11T12:08:44.578Z,97931.54
2022-08-11T12:11:32.141Z,97931.75
2022-08-11T12:14:04.134Z,97926.60
2022-08-11T12:16:41.436Z,97921.72
2022-08-11T12:19:16.872Z,97915.86
2022-08-11T12:22:04.479Z,97918.05
2022-08-11T12:24:53.607Z,97914.88
2022-08-11T12:27:28.600Z,97910.89
2022-08-11T12:30:09.355Z,97909.55
2022-08-11T12:32:40.170Z,97906.52
2022-08-11T12:35:09.123Z,97902.61
2022-08-11T12:37:41.186Z,97900.34
2022-08-11T12:40:42.600Z,97902.75
2022-08-11T12:43:43.365Z,97899.34
2022-08-11T12:46:19.823Z,97894.59
2022-08-11T12:49:09.977Z,97894.24
2022-08-11T12:52:11.307Z,97889.30
2022-08-11T12:54:49.947Z,97883.87
2022-08-11T12:57:50.558Z,97883.52
2022-08-11T13:00:38.649Z,97887.12
2022-08-11T13:03:28.382Z,97884.61
2022-08-11T13:06:02.754Z,97885.33
2022-08-11T13:08:35.692Z,97885.02
2022-08-11T13:11:23.911Z,97884.66
2022-08-11T13:13:57.831Z,97885.08
2022-08-11T13:16:30.769Z,97881.05
2022-08-11T13:19:01.373Z,97885.09
2022-08-11T13:21:31.277Z,97885.69
2022-08-11T13:24:03.409Z,97885.05
2022-08-11T13:26:48.081Z,97878.27
2022-08-11T13:29:24.582Z,97872.33
2022-08-11T13:31:56.310Z,97867.09
2022-08-11T13:34:27.091Z,97867.08
2022-08-11T13:36:58.520Z,97864.77
2022-08-11T13:39:30.282Z,97869.77
2022-08-11T13:42:01.296Z,97863.75
2022-08-11T13:44:32.898Z,97856.94
2022-08-11T13:47:04.893Z,97857.16
2022-08-11T13:49:39.927Z,97856.34
2022-08-11T13:52:14.931Z,97853.42
2022-08-11T13:54:46.882Z,97849.77
2022-08-11T13:58:06.314Z,97850.34
2022-08-11T14:00:23.611Z,97849.89
2022-08-11T14:02:57.225Z,97854.52
2022-08-11T14:05:40.306Z,97853.64
2022-08-11T14:08:32.467Z,97855.15
2022-08-11T14:12:20.092Z,97854.52
2022-08-11T14:14:21.772Z,97859.33
2022-08-11T14:16:52.383Z,97858.48
2022-08-11T14:19:24.606Z,97856.63
2022-08-11T14:22:08.134Z,97855.02
2022-08-11T14:24:49.807Z,97856.13
2022-08-11T14:27:46.058Z,97855.55
2022-08-11T14:30:34.593Z,97855.08
2022-08-11T14:33:03.003Z,97850.67
2022-08-11T14:35:49.437Z,97853.60
2022-08-11T14:38:19.912Z,97855.40
2022-08-11T14:41:07.448Z,97855.21
2022-08-11T14:44:12.532Z,97854.27
2022-08-11T14:47:02.682Z,97852.66
2022-08-11T14:49:35.074Z,97851.70
2022-08-11T14:52:10.040Z,97853.04
2022-08-11T14:54:56.753Z,97853.05
2022-08-11T14:58:04.786Z,97848.20
2022-08-11T15:00:18.251Z,97842.92
2022-08-11T15:03:11.209Z,97840.30
2022-08-11T15:05:56.287Z,97843.64
2022-08-11T15:08:52.436Z,97841.80
2022-08-11T15:11:50.144Z,97841.67
2022-08-11T15:14:38.192Z,97839.11
2022-08-11T15:17:09.808Z,97836.31
2022-08-11T15:20:01.180Z,97832.27
2022-08-11T15:22:48.181Z,97832.32
2022-08-11T15:25:16.476Z,97829.03
2022-08-11T15:28:07.141Z,97826.84
2022-08-11T15:30:56.016Z,97824.58
2022-08-11T15:33:47.730Z,97820.08
2022-08-11T15:36:34.772Z,97817.16
2022-08-11T15:39:15.175Z,97817.20
2022-08-11T15:42:16.153Z,97816.61
2022-08-11T15:45:19.047Z,97812.43
2022-08-11T15:48:04.166Z,97815.09
2022-08-11T15:50:40.169Z,97813.50
2022-08-11T15:53:56.838Z,97810.13
2022-08-11T15:56:29.329Z,97809.83
2022-08-11T15:59:42.008Z,97808.14
2022-08-11T16:02:31.292Z,97811.28
2022-08-11T16:05:02.809Z,97809.84
2022-08-11T16:07:36.389Z,97809.05
2022-08-11T16:10:17.953Z,97807.52
2022-08-11T16:13:06.930Z,97806.71
2022-08-11T16:15:59.026Z,97814.52
2022-08-11T16:18:57.514Z,97817.55
2022-08-11T16:21:36.150Z,97815.81
2022-08-11T16:27:03.922Z,97816.48
2022-08-11T16:27:12.496Z,97815.70
2022-08-11T16:29:45.887Z,97818.65
2022-08-11T16:32:20.431Z,97820.10
2022-08-11T16:35:14.676Z,97820.59
2022-08-11T16:38:20.846Z,97816.81
2022-08-11T16:40:52.957Z,97822.10
2022-08-11T16:43:46.294Z,97822.10
2022-08-11T16:46:37.678Z,97816.63
2022-08-11T16:49:22.089Z,97816.39
2022-08-11T16:51:50.093Z,97818.39
2022-08-11T16:54:19.401Z,97816.48
2022-08-11T16:56:51.090Z,97821.55
2022-08-11T16:59:24.102Z,97822.50
2022-08-11T17:02:35.154Z,97825.20
2022-08-11T17:05:29.488Z,97826.90
2022-08-11T17:08:20.273Z,97830.02
2022-08-11T17:11:20.393Z,97829.73
2022-08-11T17:14:07.276Z,97827.13
2022-08-11T17:16:40.030Z,97826.84
2022-08-11T17:20:41.593Z,97828.60
2022-08-11T17:22:28.532Z,97831.60
2022-08-11T17:24:58.021Z,97833.58
2022-08-11T17:27:28.447Z,97833.65
2022-08-11T17:29:59.751Z,97832.79
2022-08-11T17:33:07.492Z,97831.80
2022-08-11T17:35:39.491Z,97830.41
2022-08-11T17:38:12.624Z,97833.83
2022-08-11T17:41:03.559Z,97835.50
2022-08-11T17:43:51.569Z,97837.21
2022-08-11T17:46:39.196Z,97840.86
2022-08-11T17:49:10.037Z,97843.77
2022-08-11T17:51:58.217Z,97845.80
2022-08-11T17:54:45.746Z,97845.64
2022-08-11T17:57:34.084Z,97853.73
2022-08-11T18:00:05.290Z,97853.64
2022-08-11T18:03:01.691Z,97854.88
2022-08-11T18:05:36.135Z,97856.75
2022-08-11T18:08:28.890Z,97860.02
2022-08-11T18:11:18.494Z,97863.32
2022-08-11T18:14:25.999Z,97864.13
2022-08-11T18:17:13.340Z,97870.89
2022-08-11T18:20:00.383Z,97875.27
2022-08-11T18:22:58.535Z,97877.67
2022-08-11T18:25:49.553Z,97886.31
2022-08-11T18:28:42.559Z,97886.21
2022-08-11T18:31:32.317Z,97893.52
2022-08-11T18:34:28.034Z,97895.36
2022-08-11T18:37:27.409Z,97903.48
2022-08-11T18:40:24.141Z,97907.06
2022-08-11T18:43:13.794Z,97911.50
2022-08-11T18:46:07.232Z,97914.78
2022-08-11T18:48:58.471Z,97915.27
2022-08-11T18:51:47.068Z,97918.66
2022-08-11T18:54:37.004Z,97923.08
2022-08-11T18:57:27.142Z,97921.85
2022-08-11T19:00:18.461Z,97925.64
2022-08-11T19:03:06.214Z,97930.59
2022-08-11T19:06:32.466Z,97930.13
2022-08-11T19:09:11.145Z,97930.99
2022-08-11T19:11:59.875Z,97931.56
2022-08-11T19:14:49.235Z,97931.98
2022-08-11T19:17:45.925Z,97936.21
2022-08-11T19:20:36.771Z,97938.02
2022-08-11T19:23:26.053Z,97938.42
2022-08-11T19:26:14.742Z,97940.27
2022-08-11T19:29:04.225Z,97942.63
2022-08-11T19:31:52.196Z,97943.30
2022-08-11T19:34:42.104Z,97947.09
2022-08-11T19:37:31.368Z,97945.88
2022-08-11T19:40:26.173Z,97945.34
2022-08-11T19:43:25.889Z,97952.08
2022-08-11T19:46:18.263Z,97953.45
2022-08-11T19:49:08.936Z,97950.43
2022-08-11T19:51:56.865Z,97949.05
2022-08-11T19:54:51.211Z,97950.77
2022-08-11T19:57:40.983Z,97948.35
2022-08-11T20:00:37.779Z,97947.71
2022-08-11T20:03:28.372Z,97952.54
2022-08-11T20:06:18.550Z,97952.71
2022-08-11T20:09:08.792Z,97954.59
2022-08-11T20:11:59.967Z,97953.14
2022-08-11T20:14:49.571Z,97957.62
2022-08-11T20:17:37.747Z,97958.46
2022-08-11T20:20:27.829Z,97957.14
2022-08-11T20:23:18.446Z,97960.27
2022-08-11T20:26:29.550Z,97959.10
2022-08-11T20:29:16.167Z,97961.67
2022-08-11T20:32:06.663Z,97968.98
2022-08-11T20:34:58.451Z,97973.61
2022-08-11T20:37:51.111Z,97973.61
2022-08-11T20:40:41.737Z,97979.14
2022-08-11T20:44:06.210Z,97978.52
2022-08-11T20:46:42.885Z,97981.39
2022-08-11T20:49:40.914Z,97988.61
2022-08-11T20:52:36.043Z,97994.36
2022-08-11T20:55:45.462Z,97998.23
2022-08-11T20:59:02.412Z,97997.86
2022-08-11T21:01:42.333Z,98007.30
2022-08-11T21:04:30.051Z,98007.77
2022-08-11T21:10:29.448Z,98013.02
2022-08-11T21:13:25.853Z,98018.00
2022-08-11T21:16:25.691Z,98017.40
2022-08-11T21:20:01.555Z,98018.27
2022-08-11T21:22:59.299Z,98017.34
2022-08-11T21:25:54.906Z,98023.57
2022-08-11T21:28:41.503Z,98024.08
2022-08-11T21:31:29.173Z,98028.50
2022-08-11T21:34:17.408Z,98032.86
2022-08-11T21:37:04.901Z,98039.84
2022-08-11T21:39:54.038Z,98037.91
2022-08-11T21:42:46.812Z,98040.84
2022-08-11T21:45:34.674Z,98045.53
2022-08-11T21:48:22.713Z,98048.67
2022-08-11T21:51:09.572Z,98046.60
2022-08-11T21:53:56.785Z,98045.94
2022-08-11T21:56:46.333Z,98048.59
2022-08-11T21:59:42.567Z,98051.09
2022-08-11T22:02:29.168Z,98051.73
2022-08-11T22:05:16.119Z,98056.13
2022-08-11T22:08:03.401Z,98055.89
2022-08-11T22:10:50.596Z,98057.81
2022-08-11T22:13:37.189Z,98060.66
2022-08-11T22:16:24.379Z,98060.20
2022-08-11T22:19:15.597Z,98064.45
2022-08-11T22:22:06.115Z,98067.00
2022-08-11T22:24:56.413Z,98065.21
2022-08-11T22:27:44.428Z,98067.13
2022-08-11T22:30:31.747Z,98067.05
2022-08-11T22:33:25.714Z,98070.05
2022-08-11T22:36:17.087Z,98067.80
2022-08-11T22:39:06.443Z,98066.62
2022-08-11T22:41:53.265Z,98065.74
2022-08-11T22:44:39.860Z,98063.70
2022-08-11T22:47:40.545Z,98067.15
2022-08-11T22:50:29.151Z,98067.27
2022-08-11T22:53:16.952Z,98065.69
2022-08-11T22:56:04.216Z,98069.58
2022-08-11T22:58:51.382Z,98068.44
2022-08-11T23:01:39.736Z,98064.55
2022-08-11T23:04:42.776Z,98064.52
2022-08-11T23:07:50.059Z,98063.24
2022-08-11T23:10:40.056Z,98062.56
2022-08-11T23:13:28.112Z,98060.73
2022-08-11T23:16:15.805Z,98060.06
2022-08-11T23:19:03.854Z,98058.99
2022-08-11T23:21:52.654Z,98062.34
2022-08-11T23:24:40.837Z,98060.22
2022-08-11T23:27:28.678Z,98061.88
2022-08-11T23:30:18.823Z,98061.78
2022-08-11T23:33:09.576Z,98059.66
2022-08-11T23:36:04.581Z,98055.23
2022-08-11T23:38:53.351Z,98055.67
2022-08-11T23:41:40.677Z,98060.92
2022-08-11T23:44:27.997Z,98060.05
2022-08-11T23:47:19.772Z,98060.56
2022-08-11T23:50:07.578Z,98057.90
2022-08-11T23:52:54.876Z,98059.48
2022-08-11T23:55:42.343Z,98061.05
2022-08-11T23:58:31.006Z,98060.99
